sensor_id;sensor_type;location;lat;lon;timestamp;temperature;humidity
52187;DHT22;38161;53.020;6.598;2022-12-29T00:02:01;9.60;99.90
52187;DHT22;38161;53.020;6.598;2022-12-29T00:04:26;9.60;99.90
52187;DHT22;38161;53.020;6.598;2022-12-29T00:06:52;9.70;99.90
52187;DHT22;38161;53.020;6.598;2022-12-29T00:09:18;9.70;99.90
52187;DHT22;38161;53.020;6.598;2022-12-29T00:11:44;9.60;99.90
52187;DHT22;38161;53.020;6.598;2022-12-29T00:14:10;9.60;99.90
52187;DHT22;38161;53.020;6.598;2022-12-29T00:16:55;9.60;99.90
52187;DHT22;38161;53.020;6.598;2022-12-29T00:19:21;9.60;99.90
52187;DHT22;38161;53.020;6.598;2022-12-29T00:22:06;9.60;99.90
52187;DHT22;38161;53.020;6.598;2022-12-29T00:24:50;9.60;99.90
52187;DHT22;38161;53.020;6.598;2022-12-29T00:27:19;9.60;99.90
52187;DHT22;38161;53.020;6.598;2022-12-29T00:30:08;9.60;99.90
52187;DHT22;38161;53.020;6.598;2022-12-29T00:32:53;9.60;99.90
52187;DHT22;38161;53.020;6.598;2022-12-29T00:35:40;9.60;99.90
52187;DHT22;38161;53.020;6.598;2022-12-29T00:38:10;9.60;99.90
52187;DHT22;38161;53.020;6.598;2022-12-29T00:40:55;9.60;99.90
52187;DHT22;38161;53.020;6.598;2022-12-29T00:43:39;9.60;99.90
52187;DHT22;38161;53.020;6.598;2022-12-29T00:46:23;9.60;99.90
52187;DHT22;38161;53.020;6.598;2022-12-29T00:48:49;9.70;99.90
52187;DHT22;38161;53.020;6.598;2022-12-29T00:51:33;9.70;99.90
52187;DHT22;38161;53.020;6.598;2022-12-29T00:53:59;9.70;99.90
52187;DHT22;38161;53.020;6.598;2022-12-29T00:56:25;9.70;99.90
52187;DHT22;38161;53.020;6.598;2022-12-29T00:58:50;9.80;99.90
52187;DHT22;38161;53.020;6.598;2022-12-29T01:01:16;9.80;99.90
52187;DHT22;38161;53.020;6.598;2022-12-29T01:03:42;9.80;99.90
52187;DHT22;38161;53.020;6.598;2022-12-29T01:06:09;9.70;99.90
52187;DHT22;38161;53.020;6.598;2022-12-29T01:08:35;9.80;99.90
52187;DHT22;38161;53.020;6.598;2022-12-29T01:11:04;9.80;99.90
52187;DHT22;38161;53.020;6.598;2022-12-29T01:13:30;9.80;99.90
52187;DHT22;38161;53.020;6.598;2022-12-29T01:15:56;9.80;99.90
52187;DHT22;38161;53.020;6.598;2022-12-29T01:18:23;9.80;99.90
52187;DHT22;38161;53.020;6.598;2022-12-29T01:20:49;9.80;99.90
52187;DHT22;38161;53.020;6.598;2022-12-29T01:23:15;9.80;99.90
52187;DHT22;38161;53.020;6.598;2022-12-29T01:25:41;9.90;99.90
52187;DHT22;38161;53.020;6.598;2022-12-29T01:28:07;9.90;99.90
52187;DHT22;38161;53.020;6.598;2022-12-29T01:30:36;9.90;99.90
52187;DHT22;38161;53.020;6.598;2022-12-29T01:33:02;9.90;99.90
52187;DHT22;38161;53.020;6.598;2022-12-29T01:35:28;9.80;99.90
52187;DHT22;38161;53.020;6.598;2022-12-29T01:37:54;9.80;99.90
52187;DHT22;38161;53.020;6.598;2022-12-29T01:40:20;9.90;99.90
52187;DHT22;38161;53.020;6.598;2022-12-29T01:42:46;9.90;99.90
52187;DHT22;38161;53.020;6.598;2022-12-29T01:45:13;9.90;99.90
52187;DHT22;38161;53.020;6.598;2022-12-29T01:47:55;9.90;99.90
52187;DHT22;38161;53.020;6.598;2022-12-29T01:50:30;9.90;99.90
52187;DHT22;38161;53.020;6.598;2022-12-29T01:53:01;9.90;99.90
52187;DHT22;38161;53.020;6.598;2022-12-29T01:55:35;9.90;99.90
52187;DHT22;38161;53.020;6.598;2022-12-29T01:58:05;9.90;99.90
52187;DHT22;38161;53.020;6.598;2022-12-29T02:00:32;10.00;99.90
52187;DHT22;38161;53.020;6.598;2022-12-29T02:02:58;10.00;99.90
52187;DHT22;38161;53.020;6.598;2022-12-29T02:08:00;10.00;99.90
52187;DHT22;38161;53.020;6.598;2022-12-29T02:10:29;10.00;99.90
52187;DHT22;38161;53.020;6.598;2022-12-29T02:12:56;10.10;99.90
52187;DHT22;38161;53.020;6.598;2022-12-29T02:23:53;10.10;99.90
52187;DHT22;38161;53.020;6.598;2022-12-29T02:32:06;10.10;99.90
52187;DHT22;38161;53.020;6.598;2022-12-29T02:34:47;10.10;99.90
52187;DHT22;38161;53.020;6.598;2022-12-29T02:37:25;10.10;99.90
52187;DHT22;38161;53.020;6.598;2022-12-29T02:40:08;10.10;99.90
52187;DHT22;38161;53.020;6.598;2022-12-29T02:42:50;10.00;99.90
52187;DHT22;38161;53.020;6.598;2022-12-29T02:47:50;10.00;99.90
52187;DHT22;38161;53.020;6.598;2022-12-29T02:52:50;10.00;99.90
52187;DHT22;38161;53.020;6.598;2022-12-29T02:55:18;9.90;99.90
52187;DHT22;38161;53.020;6.598;2022-12-29T02:57:44;10.00;99.90
52187;DHT22;38161;53.020;6.598;2022-12-29T03:00:16;10.00;99.90
52187;DHT22;38161;53.020;6.598;2022-12-29T03:08:02;10.00;99.90
52187;DHT22;38161;53.020;6.598;2022-12-29T03:13:23;10.00;99.90
52187;DHT22;38161;53.020;6.598;2022-12-29T03:19:26;10.00;99.90
52187;DHT22;38161;53.020;6.598;2022-12-29T03:22:06;10.00;99.90
52187;DHT22;38161;53.020;6.598;2022-12-29T03:24:54;10.00;99.90
52187;DHT22;38161;53.020;6.598;2022-12-29T03:27:35;10.00;99.90
52187;DHT22;38161;53.020;6.598;2022-12-29T03:30:05;10.00;99.90
52187;DHT22;38161;53.020;6.598;2022-12-29T03:32:36;10.00;99.90
52187;DHT22;38161;53.020;6.598;2022-12-29T03:35:04;10.00;99.90
52187;DHT22;38161;53.020;6.598;2022-12-29T03:37:39;10.00;99.90
52187;DHT22;38161;53.020;6.598;2022-12-29T03:40:06;9.90;99.90
52187;DHT22;38161;53.020;6.598;2022-12-29T03:42:34;9.90;99.90
52187;DHT22;38161;53.020;6.598;2022-12-29T03:45:01;9.90;99.90
52187;DHT22;38161;53.020;6.598;2022-12-29T03:47:27;9.90;99.90
52187;DHT22;38161;53.020;6.598;2022-12-29T03:49:53;9.90;99.90
52187;DHT22;38161;53.020;6.598;2022-12-29T03:52:18;9.90;99.90
52187;DHT22;38161;53.020;6.598;2022-12-29T03:54:44;9.90;99.90
52187;DHT22;38161;53.020;6.598;2022-12-29T03:57:11;9.90;99.90
52187;DHT22;38161;53.020;6.598;2022-12-29T03:59:36;9.90;99.90
52187;DHT22;38161;53.020;6.598;2022-12-29T04:02:02;9.80;99.90
52187;DHT22;38161;53.020;6.598;2022-12-29T04:04:28;9.90;99.90
52187;DHT22;38161;53.020;6.598;2022-12-29T04:06:54;9.90;99.90
52187;DHT22;38161;53.020;6.598;2022-12-29T04:09:19;9.90;99.90
52187;DHT22;38161;53.020;6.598;2022-12-29T04:11:45;9.90;99.90
52187;DHT22;38161;53.020;6.598;2022-12-29T04:14:11;9.90;99.90
52187;DHT22;38161;53.020;6.598;2022-12-29T04:16:36;9.80;99.90
52187;DHT22;38161;53.020;6.598;2022-12-29T04:19:07;9.90;99.90
52187;DHT22;38161;53.020;6.598;2022-12-29T04:21:33;9.80;99.90
52187;DHT22;38161;53.020;6.598;2022-12-29T04:23:59;9.80;99.90
52187;DHT22;38161;53.020;6.598;2022-12-29T04:26:25;9.80;99.90
52187;DHT22;38161;53.020;6.598;2022-12-29T04:28:51;9.80;99.90
52187;DHT22;38161;53.020;6.598;2022-12-29T04:31:17;9.80;99.90
52187;DHT22;38161;53.020;6.598;2022-12-29T04:33:42;9.70;99.90
52187;DHT22;38161;53.020;6.598;2022-12-29T04:36:08;9.80;99.90
52187;DHT22;38161;53.020;6.598;2022-12-29T04:38:34;9.70;99.90
52187;DHT22;38161;53.020;6.598;2022-12-29T04:41:01;9.60;99.90
52187;DHT22;38161;53.020;6.598;2022-12-29T04:43:27;9.70;99.90
52187;DHT22;38161;53.020;6.598;2022-12-29T04:45:53;9.60;99.90
52187;DHT22;38161;53.020;6.598;2022-12-29T04:48:18;9.60;99.90
52187;DHT22;38161;53.020;6.598;2022-12-29T04:50:47;9.60;99.90
52187;DHT22;38161;53.020;6.598;2022-12-29T04:53:14;9.50;99.90
52187;DHT22;38161;53.020;6.598;2022-12-29T04:55:40;9.90;99.90
52187;DHT22;38161;53.020;6.598;2022-12-29T04:58:05;9.40;99.90
52187;DHT22;38161;53.020;6.598;2022-12-29T05:00:31;9.40;99.90
52187;DHT22;38161;53.020;6.598;2022-12-29T05:02:57;9.40;99.90
52187;DHT22;38161;53.020;6.598;2022-12-29T05:05:23;9.40;99.90
52187;DHT22;38161;53.020;6.598;2022-12-29T05:07:49;9.40;99.90
52187;DHT22;38161;53.020;6.598;2022-12-29T05:10:14;9.40;99.90
52187;DHT22;38161;53.020;6.598;2022-12-29T05:12:40;9.40;99.90
52187;DHT22;38161;53.020;6.598;2022-12-29T05:15:07;9.30;99.90
52187;DHT22;38161;53.020;6.598;2022-12-29T05:17:33;9.30;99.90
52187;DHT22;38161;53.020;6.598;2022-12-29T05:19:59;9.30;99.90
52187;DHT22;38161;53.020;6.598;2022-12-29T05:22:25;9.30;99.90
52187;DHT22;38161;53.020;6.598;2022-12-29T05:24:50;9.30;99.90
52187;DHT22;38161;53.020;6.598;2022-12-29T05:27:16;9.30;99.90
52187;DHT22;38161;53.020;6.598;2022-12-29T05:29:42;9.30;99.90
52187;DHT22;38161;53.020;6.598;2022-12-29T05:32:08;9.20;99.90
52187;DHT22;38161;53.020;6.598;2022-12-29T05:34:33;9.20;99.90
52187;DHT22;38161;53.020;6.598;2022-12-29T05:36:59;9.20;99.90
52187;DHT22;38161;53.020;6.598;2022-12-29T05:39:25;9.20;99.90
52187;DHT22;38161;53.020;6.598;2022-12-29T05:41:51;9.10;99.90
52187;DHT22;38161;53.020;6.598;2022-12-29T05:44:16;9.20;99.90
52187;DHT22;38161;53.020;6.598;2022-12-29T05:46:42;9.10;99.90
52187;DHT22;38161;53.020;6.598;2022-12-29T05:49:08;9.10;99.90
52187;DHT22;38161;53.020;6.598;2022-12-29T05:51:33;9.10;99.90
52187;DHT22;38161;53.020;6.598;2022-12-29T05:53:59;9.10;99.90
52187;DHT22;38161;53.020;6.598;2022-12-29T05:56:25;9.10;99.90
52187;DHT22;38161;53.020;6.598;2022-12-29T05:58:50;9.10;99.90
52187;DHT22;38161;53.020;6.598;2022-12-29T06:01:16;9.00;99.90
52187;DHT22;38161;53.020;6.598;2022-12-29T06:03:42;9.00;99.90
52187;DHT22;38161;53.020;6.598;2022-12-29T06:06:08;9.00;99.90
52187;DHT22;38161;53.020;6.598;2022-12-29T06:08:33;9.00;99.90
52187;DHT22;38161;53.020;6.598;2022-12-29T06:10:59;9.00;99.90
52187;DHT22;38161;53.020;6.598;2022-12-29T06:13:25;9.00;99.90
52187;DHT22;38161;53.020;6.598;2022-12-29T06:15:51;9.00;99.90
52187;DHT22;38161;53.020;6.598;2022-12-29T06:18:17;9.00;99.90
52187;DHT22;38161;53.020;6.598;2022-12-29T06:20:43;8.90;99.90
52187;DHT22;38161;53.020;6.598;2022-12-29T06:23:08;8.90;99.90
52187;DHT22;38161;53.020;6.598;2022-12-29T06:25:34;9.00;99.90
52187;DHT22;38161;53.020;6.598;2022-12-29T06:28:03;8.90;99.90
52187;DHT22;38161;53.020;6.598;2022-12-29T06:30:29;8.90;99.90
52187;DHT22;38161;53.020;6.598;2022-12-29T06:32:55;8.90;99.90
52187;DHT22;38161;53.020;6.598;2022-12-29T06:35:21;9.00;99.90
52187;DHT22;38161;53.020;6.598;2022-12-29T06:37:48;9.00;99.90
52187;DHT22;38161;53.020;6.598;2022-12-29T06:40:14;9.00;99.90
52187;DHT22;38161;53.020;6.598;2022-12-29T06:42:40;9.00;99.90
52187;DHT22;38161;53.020;6.598;2022-12-29T06:45:06;9.00;99.90
52187;DHT22;38161;53.020;6.598;2022-12-29T06:47:33;8.90;99.90
52187;DHT22;38161;53.020;6.598;2022-12-29T06:49:58;8.90;99.90
52187;DHT22;38161;53.020;6.598;2022-12-29T06:52:24;8.90;99.90
52187;DHT22;38161;53.020;6.598;2022-12-29T06:54:50;8.90;99.90
52187;DHT22;38161;53.020;6.598;2022-12-29T06:57:16;8.90;99.90
52187;DHT22;38161;53.020;6.598;2022-12-29T06:59:41;8.90;99.90
52187;DHT22;38161;53.020;6.598;2022-12-29T07:02:10;8.90;99.90
52187;DHT22;38161;53.020;6.598;2022-12-29T07:04:36;9.00;99.90
52187;DHT22;38161;53.020;6.598;2022-12-29T07:07:04;9.00;99.90
52187;DHT22;38161;53.020;6.598;2022-12-29T07:09:30;9.00;99.90
52187;DHT22;38161;53.020;6.598;2022-12-29T07:11:56;9.00;99.90
52187;DHT22;38161;53.020;6.598;2022-12-29T07:14:22;8.90;99.90
52187;DHT22;38161;53.020;6.598;2022-12-29T07:16:48;9.00;99.90
52187;DHT22;38161;53.020;6.598;2022-12-29T07:19:14;8.90;99.90
52187;DHT22;38161;53.020;6.598;2022-12-29T07:21:40;8.90;99.90
52187;DHT22;38161;53.020;6.598;2022-12-29T07:24:05;8.90;99.90
52187;DHT22;38161;53.020;6.598;2022-12-29T07:26:31;8.90;99.90
52187;DHT22;38161;53.020;6.598;2022-12-29T07:28:57;9.00;99.90
52187;DHT22;38161;53.020;6.598;2022-12-29T07:31:23;8.90;99.90
52187;DHT22;38161;53.020;6.598;2022-12-29T07:33:49;9.00;99.90
52187;DHT22;38161;53.020;6.598;2022-12-29T07:36:15;9.00;99.90
52187;DHT22;38161;53.020;6.598;2022-12-29T07:38:41;9.00;99.90
52187;DHT22;38161;53.020;6.598;2022-12-29T07:41:07;9.00;99.90
52187;DHT22;38161;53.020;6.598;2022-12-29T07:43:33;9.00;99.90
52187;DHT22;38161;53.020;6.598;2022-12-29T07:45:59;9.00;99.90
52187;DHT22;38161;53.020;6.598;2022-12-29T07:48:25;9.00;99.90
52187;DHT22;38161;53.020;6.598;2022-12-29T07:50:52;9.10;99.90
52187;DHT22;38161;53.020;6.598;2022-12-29T07:53:18;9.00;99.90
52187;DHT22;38161;53.020;6.598;2022-12-29T07:55:44;9.00;99.90
52187;DHT22;38161;53.020;6.598;2022-12-29T07:58:09;9.00;99.90
52187;DHT22;38161;53.020;6.598;2022-12-29T08:00:35;9.10;99.90
52187;DHT22;38161;53.020;6.598;2022-12-29T08:03:01;9.10;99.90
52187;DHT22;38161;53.020;6.598;2022-12-29T08:05:27;9.10;99.90
52187;DHT22;38161;53.020;6.598;2022-12-29T08:07:53;9.10;99.90
52187;DHT22;38161;53.020;6.598;2022-12-29T08:10:19;9.10;99.90
52187;DHT22;38161;53.020;6.598;2022-12-29T08:12:44;9.00;99.90
52187;DHT22;38161;53.020;6.598;2022-12-29T08:15:11;9.10;99.90
52187;DHT22;38161;53.020;6.598;2022-12-29T08:17:37;9.10;99.90
52187;DHT22;38161;53.020;6.598;2022-12-29T08:20:04;9.00;99.90
52187;DHT22;38161;53.020;6.598;2022-12-29T08:22:30;9.00;99.90
52187;DHT22;38161;53.020;6.598;2022-12-29T08:24:55;9.00;99.90
52187;DHT22;38161;53.020;6.598;2022-12-29T08:27:21;9.10;99.90
52187;DHT22;38161;53.020;6.598;2022-12-29T08:29:47;9.10;99.90
52187;DHT22;38161;53.020;6.598;2022-12-29T08:32:13;9.00;99.90
52187;DHT22;38161;53.020;6.598;2022-12-29T08:34:39;9.10;99.90
52187;DHT22;38161;53.020;6.598;2022-12-29T08:37:05;9.10;99.90
52187;DHT22;38161;53.020;6.598;2022-12-29T08:39:30;9.10;99.90
52187;DHT22;38161;53.020;6.598;2022-12-29T08:41:56;9.00;99.90
52187;DHT22;38161;53.020;6.598;2022-12-29T08:44:22;9.00;99.90
52187;DHT22;38161;53.020;6.598;2022-12-29T08:46:48;9.00;99.90
52187;DHT22;38161;53.020;6.598;2022-12-29T08:49:13;9.10;99.90
52187;DHT22;38161;53.020;6.598;2022-12-29T08:51:39;9.00;99.90
52187;DHT22;38161;53.020;6.598;2022-12-29T08:54:05;9.00;99.90
52187;DHT22;38161;53.020;6.598;2022-12-29T08:56:31;9.00;99.90
52187;DHT22;38161;53.020;6.598;2022-12-29T08:58:57;9.10;99.90
52187;DHT22;38161;53.020;6.598;2022-12-29T09:01:23;9.10;99.90
52187;DHT22;38161;53.020;6.598;2022-12-29T09:03:49;9.10;99.90
52187;DHT22;38161;53.020;6.598;2022-12-29T09:06:16;9.10;99.90
52187;DHT22;38161;53.020;6.598;2022-12-29T09:08:43;9.10;99.90
52187;DHT22;38161;53.020;6.598;2022-12-29T09:13:36;9.10;99.90
52187;DHT22;38161;53.020;6.598;2022-12-29T09:16:02;9.10;99.90
52187;DHT22;38161;53.020;6.598;2022-12-29T09:18:28;9.00;99.90
52187;DHT22;38161;53.020;6.598;2022-12-29T09:20:59;8.90;99.90
52187;DHT22;38161;53.020;6.598;2022-12-29T09:23:26;8.90;99.90
52187;DHT22;38161;53.020;6.598;2022-12-29T09:25:52;8.80;99.90
52187;DHT22;38161;53.020;6.598;2022-12-29T09:28:18;8.80;99.90
52187;DHT22;38161;53.020;6.598;2022-12-29T09:30:44;8.80;99.90
52187;DHT22;38161;53.020;6.598;2022-12-29T09:33:09;8.70;99.90
52187;DHT22;38161;53.020;6.598;2022-12-29T09:35:35;8.60;99.90
52187;DHT22;38161;53.020;6.598;2022-12-29T09:38:02;8.60;99.90
52187;DHT22;38161;53.020;6.598;2022-12-29T09:40:30;8.60;99.90
52187;DHT22;38161;53.020;6.598;2022-12-29T09:48:41;8.70;99.90
52187;DHT22;38161;53.020;6.598;2022-12-29T09:51:16;8.80;99.90
52187;DHT22;38161;53.020;6.598;2022-12-29T09:54:14;8.80;99.90
52187;DHT22;38161;53.020;6.598;2022-12-29T09:56:47;8.80;99.90
52187;DHT22;38161;53.020;6.598;2022-12-29T09:59:19;8.90;99.90
52187;DHT22;38161;53.020;6.598;2022-12-29T10:04:22;8.70;99.90
52187;DHT22;38161;53.020;6.598;2022-12-29T10:06:56;8.70;99.90
52187;DHT22;38161;53.020;6.598;2022-12-29T10:09:33;8.70;99.90
52187;DHT22;38161;53.020;6.598;2022-12-29T10:17:27;8.60;99.90
52187;DHT22;38161;53.020;6.598;2022-12-29T10:25:38;8.50;99.90
52187;DHT22;38161;53.020;6.598;2022-12-29T10:28:35;8.50;99.90
52187;DHT22;38161;53.020;6.598;2022-12-29T10:31:16;8.50;99.90
52187;DHT22;38161;53.020;6.598;2022-12-29T10:33:45;8.40;99.90
52187;DHT22;38161;53.020;6.598;2022-12-29T10:36:38;8.40;99.90
52187;DHT22;38161;53.020;6.598;2022-12-29T10:41:46;8.30;99.90
52187;DHT22;38161;53.020;6.598;2022-12-29T10:44:16;8.20;99.90
52187;DHT22;38161;53.020;6.598;2022-12-29T10:46:44;8.30;99.90
52187;DHT22;38161;53.020;6.598;2022-12-29T10:49:16;8.20;99.90
52187;DHT22;38161;53.020;6.598;2022-12-29T10:51:44;8.20;99.90
52187;DHT22;38161;53.020;6.598;2022-12-29T10:54:23;8.20;99.90
52187;DHT22;38161;53.020;6.598;2022-12-29T10:57:03;8.30;99.90
52187;DHT22;38161;53.020;6.598;2022-12-29T10:59:33;8.30;99.90
52187;DHT22;38161;53.020;6.598;2022-12-29T11:07:17;8.30;99.90
52187;DHT22;38161;53.020;6.598;2022-12-29T11:09:44;8.30;99.90
52187;DHT22;38161;53.020;6.598;2022-12-29T11:14:46;8.30;99.90
52187;DHT22;38161;53.020;6.598;2022-12-29T11:17:16;8.30;99.90
52187;DHT22;38161;53.020;6.598;2022-12-29T11:19:43;8.30;99.90
52187;DHT22;38161;53.020;6.598;2022-12-29T11:22:24;8.30;99.90
52187;DHT22;38161;53.020;6.598;2022-12-29T11:24:51;8.30;99.90
52187;DHT22;38161;53.020;6.598;2022-12-29T11:27:21;8.30;99.90
52187;DHT22;38161;53.020;6.598;2022-12-29T11:29:52;8.30;99.90
52187;DHT22;38161;53.020;6.598;2022-12-29T11:34:44;8.30;99.90
52187;DHT22;38161;53.020;6.598;2022-12-29T11:37:58;8.30;99.90
52187;DHT22;38161;53.020;6.598;2022-12-29T11:40:14;8.30;99.90
52187;DHT22;38161;53.020;6.598;2022-12-29T11:42:56;8.30;99.90
52187;DHT22;38161;53.020;6.598;2022-12-29T11:45:27;8.30;99.90
52187;DHT22;38161;53.020;6.598;2022-12-29T11:48:18;8.30;99.90
52187;DHT22;38161;53.020;6.598;2022-12-29T11:50:51;8.30;99.90
52187;DHT22;38161;53.020;6.598;2022-12-29T11:53:23;8.40;99.90
52187;DHT22;38161;53.020;6.598;2022-12-29T11:55:56;8.50;99.90
52187;DHT22;38161;53.020;6.598;2022-12-29T11:58:30;8.50;99.90
52187;DHT22;38161;53.020;6.598;2022-12-29T12:01:02;8.70;99.90
52187;DHT22;38161;53.020;6.598;2022-12-29T12:03:31;8.80;99.90
52187;DHT22;38161;53.020;6.598;2022-12-29T12:06:04;8.90;99.90
52187;DHT22;38161;53.020;6.598;2022-12-29T12:08:56;8.90;99.90
52187;DHT22;38161;53.020;6.598;2022-12-29T12:11:34;8.90;99.90
52187;DHT22;38161;53.020;6.598;2022-12-29T12:21:56;9.00;99.90
52187;DHT22;38161;53.020;6.598;2022-12-29T12:26:58;8.90;99.90
52187;DHT22;38161;53.020;6.598;2022-12-29T12:29:56;9.00;99.90
52187;DHT22;38161;53.020;6.598;2022-12-29T12:32:35;9.00;99.90
52187;DHT22;38161;53.020;6.598;2022-12-29T12:35:44;9.00;99.90
52187;DHT22;38161;53.020;6.598;2022-12-29T12:41:55;9.10;99.90
52187;DHT22;38161;53.020;6.598;2022-12-29T13:01:15;9.30;99.90
52187;DHT22;38161;53.020;6.598;2022-12-29T13:10:12;9.10;99.90
52187;DHT22;38161;53.020;6.598;2022-12-29T13:13:03;9.10;99.90
52187;DHT22;38161;53.020;6.598;2022-12-29T13:21:02;9.20;99.90
52187;DHT22;38161;53.020;6.598;2022-12-29T13:26:14;9.20;99.90
52187;DHT22;38161;53.020;6.598;2022-12-29T13:28:59;9.20;99.90
52187;DHT22;38161;53.020;6.598;2022-12-29T13:31:40;9.20;99.90
52187;DHT22;38161;53.020;6.598;2022-12-29T13:37:07;9.20;99.90
52187;DHT22;38161;53.020;6.598;2022-12-29T13:39:39;9.20;99.90
52187;DHT22;38161;53.020;6.598;2022-12-29T13:42:06;9.20;99.90
52187;DHT22;38161;53.020;6.598;2022-12-29T13:50:38;9.10;99.90
52187;DHT22;38161;53.020;6.598;2022-12-29T13:55:58;9.10;99.90
52187;DHT22;38161;53.020;6.598;2022-12-29T13:59:01;9.10;99.90
52187;DHT22;38161;53.020;6.598;2022-12-29T14:01:58;9.10;99.90
52187;DHT22;38161;53.020;6.598;2022-12-29T14:04:27;9.10;99.90
52187;DHT22;38161;53.020;6.598;2022-12-29T14:07:03;9.10;99.90
52187;DHT22;38161;53.020;6.598;2022-12-29T14:12:01;9.00;99.90
52187;DHT22;38161;53.020;6.598;2022-12-29T14:14:43;8.90;99.90
52187;DHT22;38161;53.020;6.598;2022-12-29T14:17:10;8.90;99.90
52187;DHT22;38161;53.020;6.598;2022-12-29T14:19:40;8.90;99.90
52187;DHT22;38161;53.020;6.598;2022-12-29T14:22:08;8.80;99.90
52187;DHT22;38161;53.020;6.598;2022-12-29T14:34:51;8.60;99.90
52187;DHT22;38161;53.020;6.598;2022-12-29T14:37:36;8.60;99.90
52187;DHT22;38161;53.020;6.598;2022-12-29T14:40:23;8.60;99.90
52187;DHT22;38161;53.020;6.598;2022-12-29T14:42:53;8.60;99.90
52187;DHT22;38161;53.020;6.598;2022-12-29T14:47:47;8.50;99.90
52187;DHT22;38161;53.020;6.598;2022-12-29T14:50:19;8.50;99.90
52187;DHT22;38161;53.020;6.598;2022-12-29T14:52:56;8.50;99.90
52187;DHT22;38161;53.020;6.598;2022-12-29T14:55:36;8.40;99.90
52187;DHT22;38161;53.020;6.598;2022-12-29T14:58:06;8.40;99.90
52187;DHT22;38161;53.020;6.598;2022-12-29T15:00:36;8.40;99.90
52187;DHT22;38161;53.020;6.598;2022-12-29T15:05:54;8.30;99.90
52187;DHT22;38161;53.020;6.598;2022-12-29T15:14:03;8.20;99.90
52187;DHT22;38161;53.020;6.598;2022-12-29T15:16:34;8.20;99.90
52187;DHT22;38161;53.020;6.598;2022-12-29T15:19:02;8.20;99.90
52187;DHT22;38161;53.020;6.598;2022-12-29T15:21:34;8.10;99.90
52187;DHT22;38161;53.020;6.598;2022-12-29T15:24:02;8.10;99.90
52187;DHT22;38161;53.020;6.598;2022-12-29T15:26:39;8.10;99.90
52187;DHT22;38161;53.020;6.598;2022-12-29T15:29:25;8.10;99.90
52187;DHT22;38161;53.020;6.598;2022-12-29T15:31:51;8.10;99.90
52187;DHT22;38161;53.020;6.598;2022-12-29T15:34:20;8.10;99.90
52187;DHT22;38161;53.020;6.598;2022-12-29T15:36:50;8.00;99.90
52187;DHT22;38161;53.020;6.598;2022-12-29T15:39:28;8.00;99.90
52187;DHT22;38161;53.020;6.598;2022-12-29T15:41:58;8.00;99.90
52187;DHT22;38161;53.020;6.598;2022-12-29T15:44:29;8.00;99.90
52187;DHT22;38161;53.020;6.598;2022-12-29T15:47:04;8.00;99.90
52187;DHT22;38161;53.020;6.598;2022-12-29T15:49:31;7.90;99.90
52187;DHT22;38161;53.020;6.598;2022-12-29T15:51:57;7.90;99.90
52187;DHT22;38161;53.020;6.598;2022-12-29T15:54:31;7.90;99.90
52187;DHT22;38161;53.020;6.598;2022-12-29T15:56:57;7.80;99.90
52187;DHT22;38161;53.020;6.598;2022-12-29T15:59:25;7.90;99.90
52187;DHT22;38161;53.020;6.598;2022-12-29T16:01:52;7.80;99.90
52187;DHT22;38161;53.020;6.598;2022-12-29T16:04:18;7.80;99.90
52187;DHT22;38161;53.020;6.598;2022-12-29T16:06:58;7.80;99.90
52187;DHT22;38161;53.020;6.598;2022-12-29T16:09:35;7.80;99.90
52187;DHT22;38161;53.020;6.598;2022-12-29T16:12:06;7.80;99.90
52187;DHT22;38161;53.020;6.598;2022-12-29T16:14:40;7.80;99.90
52187;DHT22;38161;53.020;6.598;2022-12-29T16:17:13;7.80;99.90
52187;DHT22;38161;53.020;6.598;2022-12-29T16:19:43;7.80;99.90
52187;DHT22;38161;53.020;6.598;2022-12-29T16:22:40;7.80;99.90
52187;DHT22;38161;53.020;6.598;2022-12-29T16:25:23;7.90;99.90
52187;DHT22;38161;53.020;6.598;2022-12-29T16:27:50;7.90;99.90
52187;DHT22;38161;53.020;6.598;2022-12-29T16:30:19;7.90;99.90
52187;DHT22;38161;53.020;6.598;2022-12-29T16:32:50;7.90;99.90
52187;DHT22;38161;53.020;6.598;2022-12-29T16:35:25;8.00;99.90
52187;DHT22;38161;53.020;6.598;2022-12-29T16:38:17;8.00;99.90
52187;DHT22;38161;53.020;6.598;2022-12-29T16:40:53;8.10;99.90
52187;DHT22;38161;53.020;6.598;2022-12-29T16:43:28;8.00;99.90
52187;DHT22;38161;53.020;6.598;2022-12-29T16:46:17;8.00;99.90
52187;DHT22;38161;53.020;6.598;2022-12-29T16:48:50;8.00;99.90
52187;DHT22;38161;53.020;6.598;2022-12-29T16:51:36;7.90;99.90
52187;DHT22;38161;53.020;6.598;2022-12-29T16:54:03;7.90;99.90
52187;DHT22;38161;53.020;6.598;2022-12-29T16:56:30;7.90;99.90
52187;DHT22;38161;53.020;6.598;2022-12-29T16:59:01;7.80;99.90
52187;DHT22;38161;53.020;6.598;2022-12-29T17:01:28;7.80;99.90
52187;DHT22;38161;53.020;6.598;2022-12-29T17:03:58;7.70;99.90
52187;DHT22;38161;53.020;6.598;2022-12-29T17:06:26;7.70;99.90
52187;DHT22;38161;53.020;6.598;2022-12-29T17:08:52;7.70;99.90
52187;DHT22;38161;53.020;6.598;2022-12-29T17:11:44;7.60;99.90
52187;DHT22;38161;53.020;6.598;2022-12-29T17:14:45;7.60;99.90
52187;DHT22;38161;53.020;6.598;2022-12-29T17:17:18;7.50;99.90
52187;DHT22;38161;53.020;6.598;2022-12-29T17:19:48;7.50;99.90
52187;DHT22;38161;53.020;6.598;2022-12-29T17:22:20;7.50;99.90
52187;DHT22;38161;53.020;6.598;2022-12-29T17:24:46;7.50;99.90
52187;DHT22;38161;53.020;6.598;2022-12-29T17:27:38;7.50;99.90
52187;DHT22;38161;53.020;6.598;2022-12-29T17:30:17;7.40;99.90
52187;DHT22;38161;53.020;6.598;2022-12-29T17:32:50;7.40;99.90
52187;DHT22;38161;53.020;6.598;2022-12-29T17:35:18;7.40;99.90
52187;DHT22;38161;53.020;6.598;2022-12-29T17:37:44;7.30;99.90
52187;DHT22;38161;53.020;6.598;2022-12-29T17:40:18;7.30;99.90
52187;DHT22;38161;53.020;6.598;2022-12-29T17:42:49;7.30;99.90
52187;DHT22;38161;53.020;6.598;2022-12-29T17:45:28;7.30;99.90
52187;DHT22;38161;53.020;6.598;2022-12-29T17:47:54;7.30;99.90
52187;DHT22;38161;53.020;6.598;2022-12-29T17:50:23;7.20;99.90
52187;DHT22;38161;53.020;6.598;2022-12-29T17:52:57;7.20;99.90
52187;DHT22;38161;53.020;6.598;2022-12-29T17:55:24;7.20;99.90
52187;DHT22;38161;53.020;6.598;2022-12-29T17:57:51;7.20;99.90
52187;DHT22;38161;53.020;6.598;2022-12-29T18:00:23;7.20;99.90
52187;DHT22;38161;53.020;6.598;2022-12-29T18:02:49;7.10;99.90
52187;DHT22;38161;53.020;6.598;2022-12-29T18:05:23;7.10;99.90
52187;DHT22;38161;53.020;6.598;2022-12-29T18:07:54;7.10;99.90
52187;DHT22;38161;53.020;6.598;2022-12-29T18:10:22;7.00;99.90
52187;DHT22;38161;53.020;6.598;2022-12-29T18:12:50;7.10;99.90
52187;DHT22;38161;53.020;6.598;2022-12-29T18:15:25;7.10;99.90
52187;DHT22;38161;53.020;6.598;2022-12-29T18:20:28;7.10;99.90
52187;DHT22;38161;53.020;6.598;2022-12-29T18:22:55;7.10;99.90
52187;DHT22;38161;53.020;6.598;2022-12-29T18:25:48;7.10;99.90
52187;DHT22;38161;53.020;6.598;2022-12-29T18:28:12;7.10;99.90
52187;DHT22;38161;53.020;6.598;2022-12-29T18:30:38;7.00;99.90
52187;DHT22;38161;53.020;6.598;2022-12-29T18:33:03;7.00;99.90
52187;DHT22;38161;53.020;6.598;2022-12-29T18:35:37;6.70;99.90
52187;DHT22;38161;53.020;6.598;2022-12-29T18:38:03;6.40;99.90